createdAt,value
2022-11-12T00:00:25.440Z,68.49
2022-11-12T00:05:25.410Z,68.49
2022-11-12T00:10:25.400Z,68.54
2022-11-12T00:15:25.263Z,68.58
2022-11-12T00:20:25.195Z,68.65
2022-11-12T00:25:25.132Z,68.62
2022-11-12T00:30:25.037Z,68.64
2022-11-12T00:35:24.997Z,68.67
2022-11-12T00:40:24.926Z,68.73
2022-11-12T00:45:24.846Z,68.81
2022-11-12T00:50:24.820Z,68.87
2022-11-12T00:55:24.746Z,68.91
2022-11-12T01:00:24.654Z,68.97
2022-11-12T01:05:44.017Z,69.01
2022-11-12T01:10:36.063Z,69.06
2022-11-12T01:15:36.000Z,69.13
2022-11-12T01:20:35.938Z,69.17
2022-11-12T01:25:35.864Z,69.24
2022-11-12T01:30:35.822Z,69.33
2022-11-12T01:35:35.736Z,69.41
2022-11-12T01:40:35.663Z,69.44
2022-11-12T01:45:35.604Z,69.49
2022-11-12T01:50:35.871Z,69.51
2022-11-12T01:55:35.455Z,69.56
2022-11-12T02:00:35.415Z,69.63
2022-11-12T02:05:35.349Z,69.73
2022-11-12T02:10:35.284Z,69.74
2022-11-12T02:15:35.211Z,69.74
2022-11-12T02:20:35.176Z,69.72
2022-11-12T02:25:35.067Z,69.72
2022-11-12T02:30:35.032Z,69.72
2022-11-12T02:35:34.970Z,69.70
2022-11-12T02:40:34.884Z,69.71
2022-11-12T02:45:34.826Z,69.77
2022-11-12T02:50:34.800Z,69.79
2022-11-12T02:55:34.667Z,69.83
2022-11-12T03:00:34.627Z,69.89
2022-11-12T03:05:34.568Z,69.94
2022-11-12T03:10:34.476Z,69.99
2022-11-12T03:15:34.430Z,70.03
2022-11-12T03:20:34.368Z,70.03
2022-11-12T03:25:34.277Z,70.07
2022-11-12T03:30:34.233Z,70.05
2022-11-12T03:35:34.167Z,70.13
2022-11-12T03:40:34.081Z,70.21
2022-11-12T03:45:34.033Z,70.26
2022-11-12T03:50:33.971Z,70.29
2022-11-12T03:55:33.890Z,70.31
2022-11-12T04:00:33.842Z,70.34
2022-11-12T04:05:33.803Z,70.36
2022-11-12T04:10:33.681Z,70.40
2022-11-12T04:15:33.665Z,70.45
2022-11-12T04:20:33.577Z,70.42
2022-11-12T04:25:33.489Z,70.41
2022-11-12T04:30:33.498Z,70.43
2022-11-12T04:35:33.366Z,70.47
2022-11-12T04:40:33.283Z,70.54
2022-11-12T04:45:33.263Z,70.59
2022-11-12T04:50:33.173Z,70.56
2022-11-12T04:55:33.153Z,70.61
2022-11-12T05:00:33.021Z,70.62
2022-11-12T05:05:34.182Z,70.61
2022-11-12T05:10:32.904Z,70.62
2022-11-12T05:15:47.689Z,70.63
2022-11-12T05:20:40.077Z,70.69
2022-11-12T05:25:40.006Z,70.76
2022-11-12T05:30:39.945Z,70.78
2022-11-12T05:35:39.877Z,70.81
2022-11-12T05:40:39.820Z,70.90
2022-11-12T05:45:39.738Z,71.09
2022-11-12T05:51:06.266Z,71.17
2022-11-12T05:55:40.596Z,71.23
2022-11-12T06:00:39.528Z,71.27
2022-11-12T06:05:39.477Z,71.29
2022-11-12T06:10:39.409Z,71.32
2022-11-12T06:15:39.669Z,71.32
2022-11-12T06:20:39.338Z,71.31
2022-11-12T06:25:39.209Z,71.30
2022-11-12T06:30:39.140Z,71.30
2022-11-12T06:35:42.780Z,71.30
2022-11-12T06:40:39.001Z,71.30
2022-11-12T06:45:38.930Z,71.33
2022-11-12T06:50:38.872Z,71.33
2022-11-12T06:55:38.815Z,71.32
2022-11-12T07:00:38.761Z,71.32
2022-11-12T07:05:38.677Z,71.30
2022-11-12T07:10:38.617Z,71.30
2022-11-12T07:15:38.534Z,71.28
2022-11-12T07:20:38.502Z,71.25
2022-11-12T07:25:38.415Z,71.20
2022-11-12T07:30:38.346Z,71.17
2022-11-12T07:35:38.285Z,71.11
2022-11-12T07:40:38.206Z,71.10
2022-11-12T07:45:38.158Z,71.11
2022-11-12T07:50:38.087Z,71.14
2022-11-12T07:55:38.018Z,71.07
2022-11-12T08:00:37.990Z,71.02
2022-11-12T08:05:37.891Z,71.03
2022-11-12T08:10:37.827Z,70.97
2022-11-12T08:15:37.737Z,70.86
2022-11-12T08:20:37.688Z,70.58
2022-11-12T08:25:37.630Z,70.58
2022-11-12T08:30:37.550Z,70.50
2022-11-12T08:35:37.495Z,70.17
2022-11-12T08:40:37.424Z,69.75
2022-11-12T08:45:37.418Z,69.58
2022-11-12T08:50:37.279Z,69.51
2022-11-12T08:55:37.219Z,69.36
2022-11-12T09:00:37.149Z,69.20
2022-11-12T09:05:37.092Z,69.04
2022-11-12T09:10:37.031Z,69.16
2022-11-12T09:15:38.333Z,68.98
2022-11-12T09:20:36.903Z,68.63
2022-11-12T09:25:36.855Z,68.24
2022-11-12T09:30:36.765Z,67.67
2022-11-12T09:35:36.706Z,67.55
2022-11-12T09:40:36.637Z,66.90
2022-11-12T09:45:36.588Z,67.47
2022-11-12T09:50:36.500Z,67.74
2022-11-12T09:55:36.456Z,67.88
2022-11-12T10:00:38.203Z,67.52
2022-11-12T10:05:36.330Z,67.22
2022-11-12T10:10:36.255Z,67.13
2022-11-12T10:15:36.174Z,67.30
2022-11-12T10:20:38.801Z,66.76
2022-11-12T10:25:36.067Z,66.63
2022-11-12T10:30:35.982Z,66.80
2022-11-12T10:35:35.893Z,66.73
2022-11-12T10:40:35.854Z,66.23
2022-11-12T10:45:35.774Z,65.96
2022-11-12T10:50:35.717Z,65.39
2022-11-12T10:55:35.642Z,64.16
2022-11-12T11:00:35.589Z,63.58
2022-11-12T11:05:35.506Z,62.59
2022-11-12T11:10:35.455Z,57.37
2022-11-12T11:15:35.385Z,57.31
2022-11-12T11:20:35.305Z,59.54
2022-11-12T11:25:35.282Z,59.00
2022-11-12T11:30:35.251Z,57.95
2022-11-12T11:35:35.114Z,58.83
2022-11-12T11:40:35.037Z,58.65
2022-11-12T11:45:34.982Z,57.84
2022-11-12T11:50:34.927Z,56.55
2022-11-12T11:55:34.854Z,54.71
2022-11-12T12:00:34.791Z,54.89
2022-11-12T12:05:34.712Z,55.07
2022-11-12T12:10:53.677Z,55.96
2022-11-12T12:15:35.591Z,56.89
2022-11-12T12:20:34.541Z,54.60
2022-11-12T12:25:34.460Z,54.15
2022-11-12T12:30:34.389Z,54.89
2022-11-12T12:35:34.323Z,56.75
2022-11-12T12:40:34.260Z,57.83
2022-11-12T12:45:36.118Z,58.70
2022-11-12T12:50:34.109Z,58.92
2022-11-12T12:55:34.060Z,59.01
2022-11-12T13:00:34.098Z,59.01
2022-11-12T13:05:33.928Z,59.06
2022-11-12T13:10:33.869Z,59.15
2022-11-12T13:15:33.847Z,59.30
2022-11-12T13:20:33.730Z,59.53
2022-11-12T13:25:33.670Z,59.73
2022-11-12T13:30:33.612Z,59.95
2022-11-12T13:35:33.531Z,60.11
2022-11-12T13:40:33.460Z,60.24
2022-11-12T13:45:33.402Z,60.47
2022-11-12T13:50:37.767Z,60.74
2022-11-12T13:55:34.265Z,60.93
2022-11-12T14:00:33.323Z,61.10
2022-11-12T14:05:33.137Z,61.25
2022-11-12T14:10:33.072Z,61.46
2022-11-12T14:15:32.998Z,61.64
2022-11-12T14:20:32.906Z,61.88
2022-11-12T14:25:32.863Z,62.18
2022-11-12T14:30:32.800Z,62.42
2022-11-12T14:35:32.727Z,62.64
2022-11-12T14:40:32.666Z,62.82
2022-11-12T14:45:35.281Z,63.02
2022-11-12T14:50:37.360Z,63.23
2022-11-12T14:55:34.795Z,63.46
2022-11-12T15:00:32.451Z,63.65
2022-11-12T15:05:32.326Z,63.87
2022-11-12T15:10:32.250Z,64.08
2022-11-12T15:15:32.203Z,64.31
2022-11-12T15:20:32.133Z,64.55
2022-11-12T15:25:32.092Z,64.80
2022-11-12T15:30:32.006Z,65.05
2022-11-12T15:35:31.940Z,65.23
2022-11-12T15:40:31.879Z,65.42
2022-11-12T15:45:31.820Z,65.62
2022-11-12T15:50:31.748Z,65.77
2022-11-12T15:55:31.764Z,65.93
2022-11-12T16:00:31.635Z,66.05
2022-11-12T16:05:31.556Z,66.16
2022-11-12T16:10:31.476Z,66.30
2022-11-12T16:15:31.401Z,66.40
2022-11-12T16:20:31.347Z,66.52
2022-11-12T16:25:31.307Z,66.60
2022-11-12T16:30:31.202Z,66.70
2022-11-12T16:35:31.121Z,66.81
2022-11-12T16:40:31.191Z,66.89
2022-11-12T16:45:31.017Z,66.99
2022-11-12T16:50:30.957Z,67.09
2022-11-12T16:55:30.881Z,67.15
2022-11-12T17:00:30.818Z,67.24
2022-11-12T17:05:30.738Z,67.31
2022-11-12T17:10:30.688Z,67.40
2022-11-12T17:15:30.629Z,67.46
2022-11-12T17:20:30.564Z,67.54
2022-11-12T17:25:30.493Z,67.59
2022-11-12T17:30:30.448Z,67.65
2022-11-12T17:35:30.446Z,67.69
2022-11-12T17:40:30.295Z,67.72
2022-11-12T17:45:30.242Z,67.79
2022-11-12T17:50:30.155Z,67.83
2022-11-12T17:55:30.083Z,67.85
2022-11-12T18:00:30.034Z,67.88
2022-11-12T18:05:29.933Z,67.93
2022-11-12T18:10:29.894Z,67.97
2022-11-12T18:15:29.854Z,68.05
2022-11-12T18:20:29.768Z,68.09
2022-11-12T18:25:29.695Z,68.12
2022-11-12T18:30:29.646Z,68.18
2022-11-12T18:35:30.118Z,68.25
2022-11-12T18:40:29.497Z,68.32
2022-11-12T18:45:29.438Z,68.40
2022-11-12T18:50:29.391Z,68.46
2022-11-12T18:55:29.318Z,68.52
2022-11-12T19:00:29.274Z,68.58
2022-11-12T19:05:29.172Z,68.63
2022-11-12T19:10:29.097Z,68.68
2022-11-12T19:15:29.057Z,68.74
2022-11-12T19:20:28.991Z,68.80
2022-11-12T19:25:28.891Z,68.86
2022-11-12T19:30:28.899Z,68.90
2022-11-12T19:35:28.789Z,68.94
2022-11-12T19:40:28.740Z,68.99
2022-11-12T19:45:28.651Z,69.05
2022-11-12T19:50:28.594Z,69.10
2022-11-12T19:55:28.503Z,69.16
2022-11-12T20:00:28.454Z,69.20
2022-11-12T20:05:28.384Z,69.24
2022-11-12T20:10:28.331Z,69.28
2022-11-12T20:15:28.254Z,69.33
2022-11-12T20:20:28.175Z,69.37
2022-11-12T20:25:28.388Z,69.41
2022-11-12T20:30:28.058Z,69.46
2022-11-12T20:35:27.968Z,69.50
2022-11-12T20:40:27.948Z,69.56
2022-11-12T20:45:27.899Z,69.59
2022-11-12T20:50:27.791Z,69.64
2022-11-12T20:55:27.736Z,69.68
2022-11-12T21:00:27.665Z,69.72
2022-11-12T21:05:27.580Z,69.76
2022-11-12T21:10:27.521Z,69.78
2022-11-12T21:15:27.462Z,69.82
2022-11-12T21:20:27.406Z,69.83
2022-11-12T21:25:27.313Z,69.85
2022-11-12T21:30:27.276Z,69.88
2022-11-12T21:35:27.182Z,69.90
2022-11-12T21:40:27.146Z,69.93
2022-11-12T21:45:27.047Z,69.95
2022-11-12T21:50:26.992Z,70.01
2022-11-12T21:55:26.931Z,70.00
2022-11-12T22:00:41.692Z,70.03
2022-11-12T22:05:27.792Z,70.08
2022-11-12T22:10:26.748Z,70.12
2022-11-12T22:15:26.665Z,70.16
2022-11-12T22:20:26.617Z,70.19
2022-11-12T22:25:26.549Z,70.23
2022-11-12T22:30:26.493Z,70.25
2022-11-12T22:35:26.400Z,70.30
2022-11-12T22:40:26.367Z,70.35
2022-11-12T22:45:26.272Z,70.39
2022-11-12T22:50:26.214Z,70.40
2022-11-12T22:55:26.142Z,70.44
2022-11-12T23:00:26.066Z,70.45
2022-11-12T23:05:25.998Z,70.48
2022-11-12T23:10:25.969Z,70.52
2022-11-12T23:15:25.867Z,70.55
2022-11-12T23:20:25.800Z,70.58
2022-11-12T23:25:25.732Z,70.63
2022-11-12T23:30:25.679Z,70.67
2022-11-12T23:35:25.600Z,70.72
2022-11-12T23:40:30.763Z,70.74
2022-11-12T23:45:26.477Z,70.77
2022-11-12T23:50:25.392Z,70.81
2022-11-12T23:55:27.624Z,70.84
